sensor_id;sensor_type;location;lat;lon;timestamp;P1;durP1;ratioP1;P2;durP2;ratioP2
76848;SDS011;65814;51.134;16.980;2024-02-16T00:02:02;13.50;;;10.90;;
76848;SDS011;65814;51.134;16.980;2024-02-16T00:04:30;14.70;;;10.00;;
76848;SDS011;65814;51.134;16.980;2024-02-16T00:06:58;15.00;;;11.00;;
76848;SDS011;65814;51.134;16.980;2024-02-16T00:09:27;12.50;;;9.80;;
76848;SDS011;65814;51.134;16.980;2024-02-16T00:11:55;13.30;;;10.00;;
76848;SDS011;65814;51.134;16.980;2024-02-16T00:14:23;12.80;;;9.30;;
76848;SDS011;65814;51.134;16.980;2024-02-16T00:16:51;12.60;;;9.50;;
76848;SDS011;65814;51.134;16.980;2024-02-16T00:19:19;12.10;;;10.20;;
76848;SDS011;65814;51.134;16.980;2024-02-16T00:21:47;12.60;;;8.70;;
76848;SDS011;65814;51.134;16.980;2024-02-16T00:24:15;12.90;;;9.20;;
76848;SDS011;65814;51.134;16.980;2024-02-16T00:26:43;13.60;;;9.70;;
76848;SDS011;65814;51.134;16.980;2024-02-16T00:29:13;13.30;;;10.10;;
76848;SDS011;65814;51.134;16.980;2024-02-16T00:31:41;13.10;;;9.10;;
76848;SDS011;65814;51.134;16.980;2024-02-16T00:34:09;13.00;;;9.70;;
76848;SDS011;65814;51.134;16.980;2024-02-16T00:36:38;13.30;;;10.50;;
76848;SDS011;65814;51.134;16.980;2024-02-16T00:39:06;11.10;;;8.70;;
76848;SDS011;65814;51.134;16.980;2024-02-16T00:41:34;11.60;;;8.70;;
76848;SDS011;65814;51.134;16.980;2024-02-16T00:44:02;13.50;;;9.20;;
76848;SDS011;65814;51.134;16.980;2024-02-16T00:46:31;15.30;;;10.40;;
76848;SDS011;65814;51.134;16.980;2024-02-16T00:49:01;12.10;;;9.80;;
76848;SDS011;65814;51.134;16.980;2024-02-16T00:51:29;13.40;;;10.20;;
76848;SDS011;65814;51.134;16.980;2024-02-16T00:53:57;12.10;;;9.10;;
76848;SDS011;65814;51.134;16.980;2024-02-16T00:56:25;11.70;;;9.10;;
76848;SDS011;65814;51.134;16.980;2024-02-16T00:58:53;13.50;;;9.90;;
76848;SDS011;65814;51.134;16.980;2024-02-16T01:01:21;13.50;;;10.70;;
76848;SDS011;65814;51.134;16.980;2024-02-16T01:03:50;12.60;;;9.80;;
76848;SDS011;65814;51.134;16.980;2024-02-16T01:06:19;13.10;;;9.30;;
76848;SDS011;65814;51.134;16.980;2024-02-16T01:08:47;12.60;;;9.00;;
76848;SDS011;65814;51.134;16.980;2024-02-16T01:11:16;10.50;;;8.50;;
76848;SDS011;65814;51.134;16.980;2024-02-16T01:13:45;12.80;;;10.00;;
76848;SDS011;65814;51.134;16.980;2024-02-16T01:16:14;12.30;;;8.80;;
76848;SDS011;65814;51.134;16.980;2024-02-16T01:18:45;14.00;;;9.10;;
76848;SDS011;65814;51.134;16.980;2024-02-16T01:21:13;13.10;;;9.90;;
76848;SDS011;65814;51.134;16.980;2024-02-16T01:23:41;17.80;;;10.50;;
76848;SDS011;65814;51.134;16.980;2024-02-16T01:26:09;14.20;;;9.50;;
76848;SDS011;65814;51.134;16.980;2024-02-16T01:28:38;11.80;;;9.90;;
76848;SDS011;65814;51.134;16.980;2024-02-16T01:31:06;11.80;;;8.50;;
76848;SDS011;65814;51.134;16.980;2024-02-16T01:33:34;12.60;;;10.30;;
76848;SDS011;65814;51.134;16.980;2024-02-16T01:36:03;12.80;;;9.50;;
76848;SDS011;65814;51.134;16.980;2024-02-16T01:38:50;14.20;;;11.30;;
76848;SDS011;65814;51.134;16.980;2024-02-16T01:41:18;13.70;;;10.70;;
76848;SDS011;65814;51.134;16.980;2024-02-16T01:43:46;13.40;;;9.90;;
76848;SDS011;65814;51.134;16.980;2024-02-16T01:46:19;12.90;;;10.10;;
76848;SDS011;65814;51.134;16.980;2024-02-16T01:48:47;13.40;;;10.10;;
76848;SDS011;65814;51.134;16.980;2024-02-16T01:51:15;13.20;;;10.10;;
76848;SDS011;65814;51.134;16.980;2024-02-16T01:53:43;15.50;;;9.40;;
76848;SDS011;65814;51.134;16.980;2024-02-16T01:56:14;12.40;;;9.60;;
76848;SDS011;65814;51.134;16.980;2024-02-16T01:58:43;14.10;;;9.60;;
76848;SDS011;65814;51.134;16.980;2024-02-16T02:01:11;12.30;;;9.50;;
76848;SDS011;65814;51.134;16.980;2024-02-16T02:03:42;14.70;;;9.80;;
76848;SDS011;65814;51.134;16.980;2024-02-16T02:06:10;15.50;;;9.70;;
76848;SDS011;65814;51.134;16.980;2024-02-16T02:08:38;12.00;;;9.30;;
76848;SDS011;65814;51.134;16.980;2024-02-16T02:11:06;13.40;;;9.10;;
76848;SDS011;65814;51.134;16.980;2024-02-16T02:13:34;14.80;;;9.60;;
76848;SDS011;65814;51.134;16.980;2024-02-16T02:16:03;12.50;;;9.00;;
76848;SDS011;65814;51.134;16.980;2024-02-16T02:18:32;11.20;;;9.30;;
76848;SDS011;65814;51.134;16.980;2024-02-16T02:21:00;14.20;;;9.20;;
76848;SDS011;65814;51.134;16.980;2024-02-16T02:23:28;14.00;;;9.30;;
76848;SDS011;65814;51.134;16.980;2024-02-16T02:25:56;11.70;;;8.90;;
76848;SDS011;65814;51.134;16.980;2024-02-16T02:28:24;12.50;;;8.80;;
76848;SDS011;65814;51.134;16.980;2024-02-16T02:30:52;13.10;;;9.10;;
76848;SDS011;65814;51.134;16.980;2024-02-16T02:33:21;11.50;;;8.80;;
76848;SDS011;65814;51.134;16.980;2024-02-16T02:35:49;12.50;;;8.30;;
76848;SDS011;65814;51.134;16.980;2024-02-16T02:38:17;14.00;;;8.90;;
76848;SDS011;65814;51.134;16.980;2024-02-16T02:40:45;12.80;;;9.10;;
76848;SDS011;65814;51.134;16.980;2024-02-16T02:43:13;11.00;;;9.00;;
76848;SDS011;65814;51.134;16.980;2024-02-16T02:45:41;13.70;;;9.00;;
76848;SDS011;65814;51.134;16.980;2024-02-16T02:48:09;12.70;;;9.20;;
76848;SDS011;65814;51.134;16.980;2024-02-16T02:50:37;11.80;;;8.70;;
76848;SDS011;65814;51.134;16.980;2024-02-16T02:53:06;11.60;;;9.00;;
76848;SDS011;65814;51.134;16.980;2024-02-16T02:55:34;11.20;;;9.00;;
76848;SDS011;65814;51.134;16.980;2024-02-16T02:58:02;12.50;;;9.10;;
76848;SDS011;65814;51.134;16.980;2024-02-16T03:00:33;10.60;;;7.80;;
76848;SDS011;65814;51.134;16.980;2024-02-16T03:03:01;11.10;;;7.70;;
76848;SDS011;65814;51.134;16.980;2024-02-16T03:05:30;12.20;;;9.00;;
76848;SDS011;65814;51.134;16.980;2024-02-16T03:07:58;10.00;;;7.70;;
76848;SDS011;65814;51.134;16.980;2024-02-16T03:10:26;11.50;;;8.30;;
76848;SDS011;65814;51.134;16.980;2024-02-16T03:12:54;10.80;;;8.00;;
76848;SDS011;65814;51.134;16.980;2024-02-16T03:15:22;11.10;;;8.50;;
76848;SDS011;65814;51.134;16.980;2024-02-16T03:17:50;11.30;;;7.80;;
76848;SDS011;65814;51.134;16.980;2024-02-16T03:20:18;11.00;;;7.70;;
76848;SDS011;65814;51.134;16.980;2024-02-16T03:22:47;10.50;;;8.10;;
76848;SDS011;65814;51.134;16.980;2024-02-16T03:25:16;10.70;;;7.10;;
76848;SDS011;65814;51.134;16.980;2024-02-16T03:27:44;9.90;;;8.20;;
76848;SDS011;65814;51.134;16.980;2024-02-16T03:30:13;11.10;;;8.40;;
76848;SDS011;65814;51.134;16.980;2024-02-16T03:32:41;11.00;;;6.80;;
76848;SDS011;65814;51.134;16.980;2024-02-16T03:35:09;11.30;;;8.10;;
76848;SDS011;65814;51.134;16.980;2024-02-16T03:37:39;9.50;;;7.60;;
76848;SDS011;65814;51.134;16.980;2024-02-16T03:40:07;9.70;;;7.20;;
76848;SDS011;65814;51.134;16.980;2024-02-16T03:42:37;10.10;;;7.30;;
76848;SDS011;65814;51.134;16.980;2024-02-16T03:45:05;8.90;;;7.40;;
76848;SDS011;65814;51.134;16.980;2024-02-16T03:47:34;9.60;;;7.40;;
76848;SDS011;65814;51.134;16.980;2024-02-16T03:50:02;11.10;;;6.60;;
76848;SDS011;65814;51.134;16.980;2024-02-16T03:52:31;9.90;;;7.10;;
76848;SDS011;65814;51.134;16.980;2024-02-16T03:54:59;11.10;;;7.10;;
76848;SDS011;65814;51.134;16.980;2024-02-16T03:57:27;10.40;;;7.30;;
76848;SDS011;65814;51.134;16.980;2024-02-16T03:59:55;10.80;;;7.10;;
76848;SDS011;65814;51.134;16.980;2024-02-16T04:02:23;8.30;;;6.20;;
76848;SDS011;65814;51.134;16.980;2024-02-16T04:04:51;9.70;;;7.70;;
76848;SDS011;65814;51.134;16.980;2024-02-16T04:07:19;9.30;;;6.10;;
76848;SDS011;65814;51.134;16.980;2024-02-16T04:09:47;9.30;;;7.60;;
76848;SDS011;65814;51.134;16.980;2024-02-16T04:12:15;11.90;;;7.80;;
76848;SDS011;65814;51.134;16.980;2024-02-16T04:14:43;11.00;;;7.70;;
76848;SDS011;65814;51.134;16.980;2024-02-16T04:17:11;10.50;;;7.70;;
76848;SDS011;65814;51.134;16.980;2024-02-16T04:19:39;12.20;;;8.80;;
76848;SDS011;65814;51.134;16.980;2024-02-16T04:22:08;10.30;;;7.50;;
76848;SDS011;65814;51.134;16.980;2024-02-16T04:24:36;10.90;;;7.90;;
76848;SDS011;65814;51.134;16.980;2024-02-16T04:27:04;10.40;;;8.40;;
76848;SDS011;65814;51.134;16.980;2024-02-16T04:29:35;9.10;;;7.00;;
76848;SDS011;65814;51.134;16.980;2024-02-16T04:32:03;9.10;;;7.50;;
76848;SDS011;65814;51.134;16.980;2024-02-16T04:34:31;10.80;;;8.00;;
76848;SDS011;65814;51.134;16.980;2024-02-16T04:36:59;10.00;;;7.60;;
76848;SDS011;65814;51.134;16.980;2024-02-16T04:39:27;10.80;;;8.60;;
76848;SDS011;65814;51.134;16.980;2024-02-16T04:41:57;10.40;;;7.70;;
76848;SDS011;65814;51.134;16.980;2024-02-16T04:44:26;10.10;;;7.70;;
76848;SDS011;65814;51.134;16.980;2024-02-16T04:46:54;9.80;;;8.20;;
76848;SDS011;65814;51.134;16.980;2024-02-16T04:49:22;12.50;;;9.20;;
76848;SDS011;65814;51.134;16.980;2024-02-16T04:51:50;11.10;;;9.30;;
76848;SDS011;65814;51.134;16.980;2024-02-16T04:54:18;13.50;;;10.30;;
76848;SDS011;65814;51.134;16.980;2024-02-16T04:56:46;14.00;;;9.40;;
76848;SDS011;65814;51.134;16.980;2024-02-16T04:59:15;14.60;;;10.00;;
76848;SDS011;65814;51.134;16.980;2024-02-16T05:01:43;12.80;;;9.20;;
76848;SDS011;65814;51.134;16.980;2024-02-16T05:04:14;12.90;;;9.70;;
76848;SDS011;65814;51.134;16.980;2024-02-16T05:06:45;13.40;;;10.70;;
76848;SDS011;65814;51.134;16.980;2024-02-16T05:09:19;17.70;;;12.60;;
76848;SDS011;65814;51.134;16.980;2024-02-16T05:11:48;15.20;;;11.00;;
76848;SDS011;65814;51.134;16.980;2024-02-16T05:14:16;15.80;;;11.80;;
76848;SDS011;65814;51.134;16.980;2024-02-16T05:16:44;15.50;;;11.60;;
76848;SDS011;65814;51.134;16.980;2024-02-16T05:19:12;16.90;;;12.20;;
76848;SDS011;65814;51.134;16.980;2024-02-16T05:21:41;18.10;;;13.00;;
76848;SDS011;65814;51.134;16.980;2024-02-16T05:24:09;15.50;;;11.60;;
76848;SDS011;65814;51.134;16.980;2024-02-16T05:26:37;16.70;;;12.90;;
76848;SDS011;65814;51.134;16.980;2024-02-16T05:29:05;19.10;;;13.60;;
76848;SDS011;65814;51.134;16.980;2024-02-16T05:31:33;18.20;;;13.20;;
76848;SDS011;65814;51.134;16.980;2024-02-16T05:34:01;17.40;;;13.70;;
76848;SDS011;65814;51.134;16.980;2024-02-16T05:36:30;19.80;;;13.90;;
76848;SDS011;65814;51.134;16.980;2024-02-16T05:39:20;22.90;;;14.00;;
76848;SDS011;65814;51.134;16.980;2024-02-16T05:42:11;20.50;;;13.10;;
76848;SDS011;65814;51.134;16.980;2024-02-16T05:44:57;20.80;;;16.00;;
76848;SDS011;65814;51.134;16.980;2024-02-16T05:47:43;17.80;;;13.00;;
76848;SDS011;65814;51.134;16.980;2024-02-16T05:50:30;19.60;;;15.70;;
76848;SDS011;65814;51.134;16.980;2024-02-16T05:53:16;21.50;;;13.50;;
76848;SDS011;65814;51.134;16.980;2024-02-16T05:56:02;17.40;;;12.90;;
76848;SDS011;65814;51.134;16.980;2024-02-16T05:58:48;21.40;;;16.10;;
76848;SDS011;65814;51.134;16.980;2024-02-16T06:01:35;20.20;;;13.90;;
76848;SDS011;65814;51.134;16.980;2024-02-16T06:04:23;18.80;;;12.70;;
76848;SDS011;65814;51.134;16.980;2024-02-16T06:07:08;20.70;;;13.60;;
76848;SDS011;65814;51.134;16.980;2024-02-16T06:09:37;20.50;;;15.40;;
76848;SDS011;65814;51.134;16.980;2024-02-16T06:12:05;19.00;;;13.00;;
76848;SDS011;65814;51.134;16.980;2024-02-16T06:14:36;18.50;;;13.30;;
76848;SDS011;65814;51.134;16.980;2024-02-16T06:22:12;17.50;;;13.00;;
76848;SDS011;65814;51.134;16.980;2024-02-16T06:24:45;19.90;;;13.70;;
76848;SDS011;65814;51.134;16.980;2024-02-16T06:27:20;17.90;;;12.90;;
76848;SDS011;65814;51.134;16.980;2024-02-16T06:29:54;19.40;;;13.90;;
76848;SDS011;65814;51.134;16.980;2024-02-16T06:32:27;18.60;;;12.50;;
76848;SDS011;65814;51.134;16.980;2024-02-16T06:35:02;16.20;;;11.70;;
76848;SDS011;65814;51.134;16.980;2024-02-16T06:37:41;16.30;;;12.30;;
76848;SDS011;65814;51.134;16.980;2024-02-16T06:40:14;15.90;;;11.30;;
76848;SDS011;65814;51.134;16.980;2024-02-16T06:58:17;13.30;;;9.40;;
76848;SDS011;65814;51.134;16.980;2024-02-16T07:00:47;11.80;;;10.00;;
76848;SDS011;65814;51.134;16.980;2024-02-16T07:03:16;16.20;;;10.50;;
76848;SDS011;65814;51.134;16.980;2024-02-16T07:05:44;13.40;;;10.10;;
76848;SDS011;65814;51.134;16.980;2024-02-16T07:08:12;14.80;;;10.90;;
76848;SDS011;65814;51.134;16.980;2024-02-16T07:10:40;15.40;;;9.50;;
76848;SDS011;65814;51.134;16.980;2024-02-16T07:13:08;13.40;;;8.80;;
76848;SDS011;65814;51.134;16.980;2024-02-16T07:15:36;13.70;;;9.20;;
76848;SDS011;65814;51.134;16.980;2024-02-16T07:18:04;13.20;;;9.60;;
76848;SDS011;65814;51.134;16.980;2024-02-16T07:20:32;10.60;;;8.50;;
76848;SDS011;65814;51.134;16.980;2024-02-16T07:23:00;11.50;;;8.70;;
76848;SDS011;65814;51.134;16.980;2024-02-16T07:25:28;11.90;;;8.90;;
76848;SDS011;65814;51.134;16.980;2024-02-16T07:27:56;10.10;;;8.50;;
76848;SDS011;65814;51.134;16.980;2024-02-16T07:30:24;11.00;;;8.20;;
76848;SDS011;65814;51.134;16.980;2024-02-16T07:33:06;11.10;;;7.70;;
76848;SDS011;65814;51.134;16.980;2024-02-16T07:35:37;11.20;;;8.20;;
76848;SDS011;65814;51.134;16.980;2024-02-16T07:38:05;11.60;;;8.10;;
76848;SDS011;65814;51.134;16.980;2024-02-16T07:40:33;10.40;;;8.40;;
76848;SDS011;65814;51.134;16.980;2024-02-16T07:43:02;10.90;;;8.00;;
76848;SDS011;65814;51.134;16.980;2024-02-16T07:45:30;10.50;;;8.00;;
76848;SDS011;65814;51.134;16.980;2024-02-16T07:47:59;11.10;;;7.90;;
76848;SDS011;65814;51.134;16.980;2024-02-16T07:50:31;9.50;;;7.40;;
76848;SDS011;65814;51.134;16.980;2024-02-16T07:52:59;10.60;;;7.10;;
76848;SDS011;65814;51.134;16.980;2024-02-16T07:55:27;10.30;;;7.70;;
76848;SDS011;65814;51.134;16.980;2024-02-16T07:57:55;9.90;;;7.70;;
76848;SDS011;65814;51.134;16.980;2024-02-16T08:00:23;10.40;;;7.80;;
76848;SDS011;65814;51.134;16.980;2024-02-16T08:02:51;9.50;;;7.40;;
76848;SDS011;65814;51.134;16.980;2024-02-16T08:05:20;9.10;;;7.40;;
76848;SDS011;65814;51.134;16.980;2024-02-16T08:07:48;10.80;;;7.30;;
76848;SDS011;65814;51.134;16.980;2024-02-16T08:10:18;10.30;;;7.20;;
76848;SDS011;65814;51.134;16.980;2024-02-16T08:12:48;9.30;;;6.70;;
76848;SDS011;65814;51.134;16.980;2024-02-16T08:15:17;8.40;;;6.80;;
76848;SDS011;65814;51.134;16.980;2024-02-16T08:17:51;8.50;;;6.70;;
76848;SDS011;65814;51.134;16.980;2024-02-16T08:20:20;10.70;;;6.90;;
76848;SDS011;65814;51.134;16.980;2024-02-16T08:22:48;12.90;;;7.40;;
76848;SDS011;65814;51.134;16.980;2024-02-16T08:25:17;10.40;;;7.10;;
76848;SDS011;65814;51.134;16.980;2024-02-16T08:27:45;10.70;;;7.20;;
76848;SDS011;65814;51.134;16.980;2024-02-16T08:30:13;10.40;;;6.90;;
76848;SDS011;65814;51.134;16.980;2024-02-16T08:32:41;9.80;;;7.30;;
76848;SDS011;65814;51.134;16.980;2024-02-16T08:35:09;12.50;;;7.30;;
76848;SDS011;65814;51.134;16.980;2024-02-16T08:37:37;11.00;;;7.80;;
76848;SDS011;65814;51.134;16.980;2024-02-16T08:40:06;8.80;;;6.30;;
76848;SDS011;65814;51.134;16.980;2024-02-16T08:42:34;8.60;;;7.40;;
76848;SDS011;65814;51.134;16.980;2024-02-16T08:45:03;9.10;;;6.30;;
76848;SDS011;65814;51.134;16.980;2024-02-16T08:47:31;9.70;;;6.80;;
76848;SDS011;65814;51.134;16.980;2024-02-16T08:49:59;8.40;;;6.60;;
76848;SDS011;65814;51.134;16.980;2024-02-16T08:52:28;10.20;;;6.60;;
76848;SDS011;65814;51.134;16.980;2024-02-16T08:54:56;13.50;;;7.30;;
76848;SDS011;65814;51.134;16.980;2024-02-16T08:57:24;7.10;;;6.00;;
76848;SDS011;65814;51.134;16.980;2024-02-16T08:59:52;9.10;;;6.60;;
76848;SDS011;65814;51.134;16.980;2024-02-16T09:02:21;10.70;;;6.20;;
76848;SDS011;65814;51.134;16.980;2024-02-16T09:04:49;9.80;;;6.70;;
76848;SDS011;65814;51.134;16.980;2024-02-16T09:07:18;9.80;;;6.40;;
76848;SDS011;65814;51.134;16.980;2024-02-16T09:09:46;8.60;;;6.20;;
76848;SDS011;65814;51.134;16.980;2024-02-16T09:12:14;9.10;;;5.70;;
76848;SDS011;65814;51.134;16.980;2024-02-16T09:14:42;11.60;;;6.30;;
76848;SDS011;65814;51.134;16.980;2024-02-16T09:17:11;8.50;;;6.20;;
76848;SDS011;65814;51.134;16.980;2024-02-16T09:19:39;10.50;;;6.20;;
76848;SDS011;65814;51.134;16.980;2024-02-16T09:22:07;8.20;;;6.00;;
76848;SDS011;65814;51.134;16.980;2024-02-16T09:24:35;7.20;;;5.30;;
76848;SDS011;65814;51.134;16.980;2024-02-16T09:27:05;6.90;;;5.80;;
76848;SDS011;65814;51.134;16.980;2024-02-16T09:29:33;7.90;;;6.00;;
76848;SDS011;65814;51.134;16.980;2024-02-16T09:32:01;7.20;;;5.50;;
76848;SDS011;65814;51.134;16.980;2024-02-16T09:34:30;6.30;;;5.30;;
76848;SDS011;65814;51.134;16.980;2024-02-16T09:36:59;7.00;;;4.80;;
76848;SDS011;65814;51.134;16.980;2024-02-16T09:39:27;6.50;;;4.80;;
76848;SDS011;65814;51.134;16.980;2024-02-16T09:41:56;7.30;;;4.80;;
76848;SDS011;65814;51.134;16.980;2024-02-16T09:44:24;6.60;;;4.90;;
76848;SDS011;65814;51.134;16.980;2024-02-16T09:46:52;7.20;;;4.90;;
76848;SDS011;65814;51.134;16.980;2024-02-16T09:49:21;7.70;;;4.50;;
76848;SDS011;65814;51.134;16.980;2024-02-16T09:52:02;5.40;;;4.30;;
76848;SDS011;65814;51.134;16.980;2024-02-16T09:54:33;5.10;;;4.30;;
76848;SDS011;65814;51.134;16.980;2024-02-16T09:57:06;6.10;;;4.30;;
76848;SDS011;65814;51.134;16.980;2024-02-16T09:59:37;6.00;;;4.40;;
76848;SDS011;65814;51.134;16.980;2024-02-16T10:02:05;6.40;;;4.60;;
76848;SDS011;65814;51.134;16.980;2024-02-16T10:04:35;6.40;;;4.30;;
76848;SDS011;65814;51.134;16.980;2024-02-16T10:07:04;5.60;;;3.70;;
76848;SDS011;65814;51.134;16.980;2024-02-16T10:09:39;6.50;;;4.10;;
76848;SDS011;65814;51.134;16.980;2024-02-16T10:12:10;5.40;;;4.20;;
76848;SDS011;65814;51.134;16.980;2024-02-16T10:14:53;6.50;;;3.50;;
76848;SDS011;65814;51.134;16.980;2024-02-16T10:17:22;5.40;;;3.60;;
76848;SDS011;65814;51.134;16.980;2024-02-16T10:19:58;7.10;;;3.80;;
76848;SDS011;65814;51.134;16.980;2024-02-16T10:22:27;5.60;;;3.70;;
76848;SDS011;65814;51.134;16.980;2024-02-16T10:25:06;6.70;;;4.00;;
76848;SDS011;65814;51.134;16.980;2024-02-16T10:27:39;5.80;;;3.60;;
76848;SDS011;65814;51.134;16.980;2024-02-16T10:30:09;6.30;;;4.10;;
76848;SDS011;65814;51.134;16.980;2024-02-16T10:32:39;7.00;;;3.60;;
76848;SDS011;65814;51.134;16.980;2024-02-16T10:35:08;5.50;;;3.90;;
76848;SDS011;65814;51.134;16.980;2024-02-16T10:37:37;4.80;;;3.90;;
76848;SDS011;65814;51.134;16.980;2024-02-16T10:40:05;5.20;;;3.70;;
76848;SDS011;65814;51.134;16.980;2024-02-16T10:42:34;5.80;;;4.40;;
76848;SDS011;65814;51.134;16.980;2024-02-16T10:45:04;5.30;;;3.10;;
76848;SDS011;65814;51.134;16.980;2024-02-16T10:47:33;5.30;;;3.30;;
76848;SDS011;65814;51.134;16.980;2024-02-16T10:50:01;4.10;;;3.70;;
76848;SDS011;65814;51.134;16.980;2024-02-16T10:52:30;4.40;;;3.10;;
76848;SDS011;65814;51.134;16.980;2024-02-16T10:54:58;4.90;;;3.40;;
76848;SDS011;65814;51.134;16.980;2024-02-16T10:57:27;4.60;;;3.30;;
76848;SDS011;65814;51.134;16.980;2024-02-16T10:59:55;7.20;;;3.40;;
76848;SDS011;65814;51.134;16.980;2024-02-16T11:02:24;5.50;;;3.10;;
76848;SDS011;65814;51.134;16.980;2024-02-16T11:04:53;5.00;;;2.70;;
76848;SDS011;65814;51.134;16.980;2024-02-16T11:07:21;3.90;;;2.90;;
76848;SDS011;65814;51.134;16.980;2024-02-16T11:09:53;5.20;;;3.00;;
76848;SDS011;65814;51.134;16.980;2024-02-16T11:12:21;5.30;;;3.40;;
76848;SDS011;65814;51.134;16.980;2024-02-16T11:14:49;4.20;;;3.30;;
76848;SDS011;65814;51.134;16.980;2024-02-16T11:17:23;4.10;;;3.10;;
76848;SDS011;65814;51.134;16.980;2024-02-16T11:19:53;4.30;;;3.10;;
76848;SDS011;65814;51.134;16.980;2024-02-16T11:22:22;4.40;;;3.10;;
76848;SDS011;65814;51.134;16.980;2024-02-16T11:24:58;3.70;;;2.60;;
76848;SDS011;65814;51.134;16.980;2024-02-16T11:27:30;6.60;;;3.20;;
76848;SDS011;65814;51.134;16.980;2024-02-16T11:29:59;5.10;;;3.00;;
76848;SDS011;65814;51.134;16.980;2024-02-16T11:32:31;4.00;;;2.60;;
76848;SDS011;65814;51.134;16.980;2024-02-16T11:35:07;4.20;;;2.70;;
76848;SDS011;65814;51.134;16.980;2024-02-16T11:37:36;3.90;;;2.90;;
76848;SDS011;65814;51.134;16.980;2024-02-16T11:40:05;4.50;;;2.60;;
76848;SDS011;65814;51.134;16.980;2024-02-16T11:42:36;4.90;;;3.10;;
76848;SDS011;65814;51.134;16.980;2024-02-16T11:45:04;4.70;;;2.90;;
76848;SDS011;65814;51.134;16.980;2024-02-16T11:47:34;4.80;;;2.90;;
76848;SDS011;65814;51.134;16.980;2024-02-16T11:50:09;4.70;;;3.40;;
76848;SDS011;65814;51.134;16.980;2024-02-16T11:52:41;3.10;;;2.80;;
76848;SDS011;65814;51.134;16.980;2024-02-16T11:55:09;5.10;;;3.20;;
76848;SDS011;65814;51.134;16.980;2024-02-16T11:57:39;5.00;;;3.20;;
76848;SDS011;65814;51.134;16.980;2024-02-16T12:00:08;3.60;;;2.90;;
76848;SDS011;65814;51.134;16.980;2024-02-16T12:02:39;3.90;;;2.80;;
76848;SDS011;65814;51.134;16.980;2024-02-16T12:05:07;5.10;;;3.40;;
76848;SDS011;65814;51.134;16.980;2024-02-16T12:07:38;3.90;;;2.80;;
76848;SDS011;65814;51.134;16.980;2024-02-16T12:10:10;3.50;;;2.90;;
76848;SDS011;65814;51.134;16.980;2024-02-16T12:12:39;5.00;;;3.20;;
76848;SDS011;65814;51.134;16.980;2024-02-16T12:15:07;6.10;;;3.10;;
76848;SDS011;65814;51.134;16.980;2024-02-16T12:17:36;4.00;;;2.90;;
76848;SDS011;65814;51.134;16.980;2024-02-16T12:20:10;3.90;;;2.50;;
76848;SDS011;65814;51.134;16.980;2024-02-16T12:22:40;5.60;;;2.70;;
76848;SDS011;65814;51.134;16.980;2024-02-16T12:25:08;4.30;;;2.60;;
76848;SDS011;65814;51.134;16.980;2024-02-16T12:27:36;9.90;;;5.10;;
76848;SDS011;65814;51.134;16.980;2024-02-16T12:30:04;3.60;;;3.00;;
76848;SDS011;65814;51.134;16.980;2024-02-16T12:32:33;5.20;;;3.10;;
76848;SDS011;65814;51.134;16.980;2024-02-16T12:35:01;4.00;;;3.10;;
76848;SDS011;65814;51.134;16.980;2024-02-16T12:37:34;5.30;;;3.10;;
76848;SDS011;65814;51.134;16.980;2024-02-16T12:40:03;5.00;;;3.10;;
76848;SDS011;65814;51.134;16.980;2024-02-16T12:42:34;6.10;;;3.20;;
76848;SDS011;65814;51.134;16.980;2024-02-16T12:45:02;4.10;;;3.10;;
76848;SDS011;65814;51.134;16.980;2024-02-16T12:47:31;4.90;;;3.10;;
76848;SDS011;65814;51.134;16.980;2024-02-16T12:49:59;4.30;;;2.90;;
76848;SDS011;65814;51.134;16.980;2024-02-16T12:52:28;18.70;;;3.80;;
76848;SDS011;65814;51.134;16.980;2024-02-16T12:54:56;4.30;;;3.20;;
76848;SDS011;65814;51.134;16.980;2024-02-16T12:57:27;3.30;;;2.80;;
76848;SDS011;65814;51.134;16.980;2024-02-16T12:59:57;4.90;;;3.50;;
76848;SDS011;65814;51.134;16.980;2024-02-16T13:02:25;4.20;;;3.60;;
76848;SDS011;65814;51.134;16.980;2024-02-16T13:04:53;3.20;;;2.90;;
76848;SDS011;65814;51.134;16.980;2024-02-16T13:07:23;7.10;;;3.70;;
76848;SDS011;65814;51.134;16.980;2024-02-16T13:09:52;6.80;;;3.90;;
76848;SDS011;65814;51.134;16.980;2024-02-16T13:12:20;7.70;;;3.50;;
76848;SDS011;65814;51.134;16.980;2024-02-16T13:14:51;5.40;;;3.50;;
76848;SDS011;65814;51.134;16.980;2024-02-16T13:17:19;7.20;;;3.00;;
76848;SDS011;65814;51.134;16.980;2024-02-16T13:19:47;4.10;;;3.70;;
76848;SDS011;65814;51.134;16.980;2024-02-16T13:22:16;5.00;;;3.30;;
76848;SDS011;65814;51.134;16.980;2024-02-16T13:24:44;4.00;;;3.00;;
76848;SDS011;65814;51.134;16.980;2024-02-16T13:27:39;6.10;;;3.50;;
76848;SDS011;65814;51.134;16.980;2024-02-16T13:30:10;4.90;;;3.20;;
76848;SDS011;65814;51.134;16.980;2024-02-16T13:32:38;5.20;;;2.90;;
76848;SDS011;65814;51.134;16.980;2024-02-16T13:35:08;5.40;;;3.20;;
76848;SDS011;65814;51.134;16.980;2024-02-16T13:37:36;5.10;;;3.70;;
76848;SDS011;65814;51.134;16.980;2024-02-16T13:40:04;5.30;;;3.00;;
76848;SDS011;65814;51.134;16.980;2024-02-16T13:42:35;6.20;;;3.10;;
76848;SDS011;65814;51.134;16.980;2024-02-16T13:45:20;5.40;;;3.10;;
76848;SDS011;65814;51.134;16.980;2024-02-16T13:48:08;6.20;;;5.10;;
76848;SDS011;65814;51.134;16.980;2024-02-16T13:50:54;4.80;;;3.40;;
76848;SDS011;65814;51.134;16.980;2024-02-16T13:53:40;6.20;;;3.30;;
76848;SDS011;65814;51.134;16.980;2024-02-16T13:56:25;8.00;;;4.00;;
76848;SDS011;65814;51.134;16.980;2024-02-16T13:59:10;4.70;;;3.30;;
76848;SDS011;65814;51.134;16.980;2024-02-16T14:01:56;6.50;;;3.60;;
76848;SDS011;65814;51.134;16.980;2024-02-16T14:04:42;4.40;;;3.30;;
76848;SDS011;65814;51.134;16.980;2024-02-16T14:07:28;5.20;;;3.60;;
76848;SDS011;65814;51.134;16.980;2024-02-16T14:10:13;5.40;;;3.60;;
76848;SDS011;65814;51.134;16.980;2024-02-16T14:12:58;6.10;;;3.80;;
76848;SDS011;65814;51.134;16.980;2024-02-16T14:15:43;7.00;;;3.20;;
76848;SDS011;65814;51.134;16.980;2024-02-16T14:18:29;6.30;;;3.90;;
76848;SDS011;65814;51.134;16.980;2024-02-16T14:21:14;4.00;;;2.90;;
76848;SDS011;65814;51.134;16.980;2024-02-16T14:23:42;6.20;;;3.60;;
76848;SDS011;65814;51.134;16.980;2024-02-16T14:26:11;5.40;;;3.50;;
76848;SDS011;65814;51.134;16.980;2024-02-16T14:28:39;5.30;;;4.10;;
76848;SDS011;65814;51.134;16.980;2024-02-16T14:31:07;7.10;;;4.40;;
76848;SDS011;65814;51.134;16.980;2024-02-16T14:33:36;6.00;;;4.00;;
76848;SDS011;65814;51.134;16.980;2024-02-16T14:36:04;4.50;;;3.50;;
76848;SDS011;65814;51.134;16.980;2024-02-16T14:38:33;6.60;;;4.00;;
76848;SDS011;65814;51.134;16.980;2024-02-16T14:41:01;6.00;;;3.90;;
76848;SDS011;65814;51.134;16.980;2024-02-16T14:43:33;5.10;;;3.80;;
76848;SDS011;65814;51.134;16.980;2024-02-16T14:46:01;6.10;;;4.00;;
76848;SDS011;65814;51.134;16.980;2024-02-16T14:48:32;5.60;;;3.70;;
76848;SDS011;65814;51.134;16.980;2024-02-16T14:51:00;4.90;;;3.10;;
76848;SDS011;65814;51.134;16.980;2024-02-16T14:53:28;4.50;;;3.30;;
76848;SDS011;65814;51.134;16.980;2024-02-16T14:56:00;5.00;;;3.60;;
76848;SDS011;65814;51.134;16.980;2024-02-16T14:58:31;5.50;;;4.30;;
76848;SDS011;65814;51.134;16.980;2024-02-16T15:01:05;6.30;;;3.60;;
76848;SDS011;65814;51.134;16.980;2024-02-16T15:03:33;7.30;;;4.20;;
76848;SDS011;65814;51.134;16.980;2024-02-16T15:06:02;5.30;;;3.50;;